Date,TemperatureHighF,TemperatureAvgF,TemperatureLowF,DewpointHighF,DewpointAvgF,DewpointLowF,HumidityHigh,HumidityAvg,HumidityLow,PressureMaxIn,PressureMinIn,WindSpeedMaxMPH,WindSpeedAvgMPH,GustSpeedMaxMPH,PrecipitationSumIn
2013-7-1,64,54,43,-100,-100,-100,0,0,100,0.00,40.00,0,-999,0,0.00
2013-7-2,67,55,44,-100,-100,-100,0,0,100,0.00,40.00,0,-999,0,0.00
2013-7-3,68,54,43,-100,-100,-100,0,0,100,0.00,40.00,0,-999,0,0.01
2013-7-4,66,53,43,-100,-100,-100,0,0,100,0.00,40.00,0,-999,0,0.01
2013-7-5,63,54,47,-100,-100,-100,0,0,100,0.00,40.00,0,-999,0,0.02
2013-7-6,65,53,43,-100,-100,-100,0,0,100,0.00,40.00,0,-999,0,0.01
2013-7-7,69,57,46,-100,-100,-100,0,0,100,0.00,40.00,0,-999,0,0.00
2013-7-8,67,54,47,-100,-100,-100,0,0,100,0.00,40.00,0,-999,0,0.01
2013-7-9,68,56,45,-100,-100,-100,0,0,100,0.00,40.00,0,-999,0,0.00
2013-7-10,73,61,52,-100,-100,-100,0,0,100,0.00,40.00,0,-999,0,0.00
2013-7-11,76,62,54,-100,-100,-100,0,0,100,0.00,40.00,0,-999,0,0.00
2013-7-12,67,55,45,-100,-100,-100,0,0,100,0.00,40.00,0,-999,0,0.07
2013-7-13,61,53,46,-100,-100,-100,0,0,100,0.00,40.00,0,-999,0,0.06
2013-7-14,66,54,45,-100,-100,-100,0,0,100,0.00,40.00,0,-999,0,0.00
2013-7-15,67,55,48,-100,-100,-100,0,0,100,0.00,40.00,0,-999,0,0.01
2013-7-16,69,58,47,-100,-100,-100,0,0,100,0.00,40.00,0,-999,0,0.00
2013-7-17,73,60,50,-100,-100,-100,0,0,100,0.00,40.00,0,-999,0,0.00
2013-7-18,69,59,49,-100,-100,-100,0,0,100,0.00,40.00,0,-999,0,0.00
2013-7-19,67,57,46,-100,-100,-100,0,0,100,0.00,40.00,0,-999,0,0.01
2013-7-20,71,57,49,-100,-100,-100,0,0,100,0.00,40.00,0,-999,0,0.00
2013-7-21,74,59,46,-100,-100,-100,0,0,100,0.00,40.00,0,-999,0,0.00
2013-7-22,73,59,46,-100,-100,-100,0,0,100,0.00,40.00,0,-999,0,0.00
2013-7-23,74,59,47,-100,-100,-100,0,0,100,0.00,40.00,0,-999,0,0.00
2013-7-24,73,59,50,-100,-100,-100,0,0,100,0.00,40.00,0,-999,0,0.01
2013-7-25,61,51,43,-100,-100,-100,0,0,100,0.00,40.00,0,-999,0,0.02
2013-7-26,65,53,38,-100,-100,-100,0,0,100,0.00,40.00,0,-999,0,0.01
2013-7-27,68,55,46,-100,-100,-100,0,0,100,0.00,40.00,0,-999,0,0.00
2013-7-28,58,51,47,-100,-100,-100,0,0,100,0.00,40.00,0,-999,0,0.01
2013-7-29,59,48,44,-100,-100,-100,0,0,100,0.00,40.00,0,-999,0,0.00
2013-7-30,64,53,43,-100,-100,-100,0,0,100,0.00,40.00,0,-999,0,0.00
2013-7-31,67,57,44,-100,-100,-100,0,0,100,0.00,40.00,0,-999,0,1.12